createdAt,value
2023-05-08T00:00:57.126Z,12.60
2023-05-08T00:03:24.305Z,12.70
2023-05-08T00:05:51.300Z,12.60
2023-05-08T00:08:18.199Z,12.50
2023-05-08T00:10:45.113Z,12.40
2023-05-08T00:13:12.074Z,12.40
2023-05-08T00:15:38.963Z,12.40
2023-05-08T00:18:05.939Z,12.30
2023-05-08T00:20:34.469Z,12.20
2023-05-08T00:23:01.367Z,12.20
2023-05-08T00:25:28.206Z,12.10
2023-05-08T00:27:55.063Z,12.10
2023-05-08T00:30:22.322Z,12.00
2023-05-08T00:32:49.275Z,12.00
2023-05-08T00:35:16.478Z,11.90
2023-05-08T00:37:43.950Z,11.90
2023-05-08T00:40:11.898Z,11.90
2023-05-08T00:42:39.019Z,11.80
2023-05-08T00:45:06.154Z,11.80
2023-05-08T00:47:33.156Z,11.70
2023-05-08T00:50:00.052Z,11.60
2023-05-08T00:52:28.511Z,11.60
2023-05-08T00:54:55.408Z,11.60
2023-05-08T00:57:22.708Z,11.60
2023-05-08T00:59:49.860Z,11.50
2023-05-08T01:02:16.913Z,11.50
2023-05-08T01:04:45.132Z,11.40
2023-05-08T01:07:12.360Z,11.30
2023-05-08T01:09:39.903Z,11.20
2023-05-08T01:12:19.435Z,11.20
2023-05-08T01:15:05.265Z,11.20
2023-05-08T01:17:50.366Z,11.20
2023-05-08T01:20:29.577Z,11.20
2023-05-08T01:23:15.632Z,11.20
2023-05-08T01:26:01.150Z,11.20
2023-05-08T01:28:46.596Z,11.10
2023-05-08T01:31:22.690Z,11.10
2023-05-08T01:34:09.233Z,11.00
2023-05-08T01:36:55.023Z,11.00
2023-05-08T01:39:27.137Z,11.00
2023-05-08T01:41:57.753Z,10.90
2023-05-08T01:44:25.010Z,10.90
2023-05-08T01:46:51.931Z,10.90
2023-05-08T01:49:28.655Z,10.80
2023-05-08T01:52:00.836Z,10.80
2023-05-08T01:54:28.640Z,10.80
2023-05-08T01:56:56.192Z,10.80
2023-05-08T01:59:23.485Z,10.80
2023-05-08T02:01:51.666Z,10.70
2023-05-08T02:04:20.975Z,10.70
2023-05-08T02:06:47.913Z,10.70
2023-05-08T02:09:14.895Z,10.70
2023-05-08T02:11:42.257Z,10.70
2023-05-08T02:14:09.207Z,10.60
2023-05-08T02:16:36.168Z,10.70
2023-05-08T02:19:03.209Z,10.60
2023-05-08T02:21:30.116Z,10.60
2023-05-08T02:23:57.391Z,10.60
2023-05-08T02:26:24.446Z,10.60
2023-05-08T02:28:52.265Z,10.60
2023-05-08T02:31:19.586Z,10.50
2023-05-08T02:33:46.472Z,10.50
2023-05-08T02:36:14.218Z,10.50
2023-05-08T02:38:41.469Z,10.50
2023-05-08T02:41:08.452Z,10.40
2023-05-08T02:43:35.733Z,10.40
2023-05-08T02:46:13.105Z,10.40
2023-05-08T02:48:43.166Z,10.40
2023-05-08T02:51:30.977Z,10.40
2023-05-08T02:54:16.558Z,10.40
2023-05-08T02:56:58.736Z,10.40
2023-05-08T02:59:29.528Z,10.30
2023-05-08T03:02:00.414Z,10.30
2023-05-08T03:04:29.344Z,10.30
2023-05-08T03:06:57.121Z,10.30
2023-05-08T03:09:26.467Z,10.30
2023-05-08T03:11:55.533Z,10.20
2023-05-08T03:14:22.961Z,10.20
2023-05-08T03:16:50.710Z,10.10
2023-05-08T03:19:27.663Z,10.10
2023-05-08T03:21:54.606Z,10.10
2023-05-08T03:24:21.502Z,10.10
2023-05-08T03:26:48.539Z,10.00
2023-05-08T03:29:15.627Z,10.00
2023-05-08T03:31:42.907Z,10.00
2023-05-08T03:34:09.838Z,10.00
2023-05-08T03:36:36.739Z,9.90
2023-05-08T03:39:03.645Z,9.90
2023-05-08T03:41:30.737Z,9.90
2023-05-08T03:43:57.606Z,9.80
2023-05-08T03:46:24.711Z,9.80
2023-05-08T03:48:51.630Z,9.70
2023-05-08T03:51:19.305Z,9.70
2023-05-08T03:53:46.701Z,9.70
2023-05-08T03:56:14.328Z,9.60
2023-05-08T03:58:43.251Z,9.60
2023-05-08T04:01:16.043Z,9.60
2023-05-08T04:03:53.092Z,9.60
2023-05-08T04:06:28.749Z,9.60
2023-05-08T04:09:13.336Z,9.60
2023-05-08T04:12:06.985Z,9.50
2023-05-08T04:14:37.986Z,9.50
2023-05-08T04:17:06.305Z,9.50
2023-05-08T04:19:33.978Z,9.50
2023-05-08T04:22:05.119Z,9.40
2023-05-08T04:24:32.055Z,9.40
2023-05-08T04:26:59.685Z,9.40
2023-05-08T04:29:26.875Z,9.40
2023-05-08T04:31:53.921Z,9.50
2023-05-08T04:34:20.966Z,9.60
2023-05-08T04:36:48.790Z,9.60
2023-05-08T04:39:15.960Z,9.70
2023-05-08T04:41:43.129Z,9.70
2023-05-08T04:44:11.693Z,9.80
2023-05-08T04:46:38.741Z,9.80
2023-05-08T04:49:05.717Z,9.90
2023-05-08T04:51:32.807Z,9.90
2023-05-08T04:54:00.274Z,10.00
2023-05-08T04:56:28.281Z,10.10
2023-05-08T04:58:55.218Z,10.10
2023-05-08T05:01:22.806Z,10.20
2023-05-08T05:03:50.314Z,10.20
2023-05-08T05:06:17.288Z,10.20
2023-05-08T05:08:45.222Z,10.20
2023-05-08T05:11:12.180Z,10.30
2023-05-08T05:13:39.070Z,10.30
2023-05-08T05:16:06.396Z,10.40
2023-05-08T05:18:33.404Z,10.40
2023-05-08T05:21:00.392Z,10.50
2023-05-08T05:23:29.679Z,10.60
2023-05-08T05:25:56.896Z,10.60
2023-05-08T05:28:23.846Z,10.70
2023-05-08T05:30:50.897Z,10.80
2023-05-08T05:33:17.770Z,10.80
2023-05-08T05:35:44.904Z,11.00
2023-05-08T05:38:11.830Z,11.10
2023-05-08T05:40:38.961Z,11.10
2023-05-08T05:43:06.210Z,11.20
2023-05-08T05:45:33.712Z,11.40
2023-05-08T05:48:01.420Z,11.50
2023-05-08T05:50:29.963Z,11.50
2023-05-08T05:52:57.624Z,11.70
2023-05-08T05:55:24.559Z,11.80
2023-05-08T05:57:51.956Z,11.90
2023-05-08T06:00:19.109Z,12.10
2023-05-08T06:02:50.581Z,12.20
2023-05-08T06:05:19.822Z,12.30
2023-05-08T06:07:46.843Z,12.40
2023-05-08T06:10:13.826Z,12.60
2023-05-08T06:12:40.812Z,12.90
2023-05-08T06:15:09.997Z,13.20
2023-05-08T06:17:37.400Z,13.60
2023-05-08T06:20:04.593Z,13.90
2023-05-08T06:22:31.655Z,14.20
2023-05-08T06:24:58.852Z,14.50
2023-05-08T06:27:26.205Z,14.80
2023-05-08T06:29:53.555Z,15.00
2023-05-08T06:32:20.787Z,15.40
2023-05-08T06:34:47.876Z,15.90
2023-05-08T06:37:14.880Z,16.10
2023-05-08T06:39:41.902Z,16.20
2023-05-08T06:42:09.161Z,16.20
2023-05-08T06:44:39.073Z,16.20
2023-05-08T06:47:06.025Z,16.10
2023-05-08T06:49:32.933Z,16.00
2023-05-08T06:51:59.835Z,16.10
2023-05-08T06:54:26.690Z,16.20
2023-05-08T06:56:54.391Z,16.20
2023-05-08T06:59:21.635Z,16.20
2023-05-08T07:01:48.614Z,16.30
2023-05-08T07:04:15.558Z,16.30
2023-05-08T07:06:42.482Z,16.40
2023-05-08T07:09:10.153Z,16.80
2023-05-08T07:11:37.197Z,17.40
2023-05-08T07:14:04.511Z,18.00
2023-05-08T07:16:31.464Z,18.20
2023-05-08T07:18:58.442Z,18.20
2023-05-08T07:21:25.312Z,17.90
2023-05-08T07:23:54.027Z,17.50
2023-05-08T07:26:21.785Z,17.60
2023-05-08T07:28:48.957Z,17.50
2023-05-08T07:31:16.010Z,17.40
2023-05-08T07:33:43.098Z,17.40
2023-05-08T07:36:10.007Z,17.50
2023-05-08T07:38:37.161Z,17.30
2023-05-08T07:41:05.486Z,17.40
2023-05-08T07:43:32.483Z,17.10
2023-05-08T07:45:59.423Z,17.00
2023-05-08T07:48:26.375Z,17.00
2023-05-08T07:50:53.328Z,17.10
2023-05-08T07:53:20.176Z,17.00
2023-05-08T07:55:47.081Z,17.10
2023-05-08T07:58:14.648Z,17.00
2023-05-08T08:00:41.551Z,16.70
2023-05-08T08:03:08.604Z,16.70
2023-05-08T08:05:35.517Z,16.80
2023-05-08T08:08:02.619Z,16.60
2023-05-08T08:10:29.605Z,16.70
2023-05-08T08:12:56.536Z,16.60
2023-05-08T08:15:23.435Z,16.60
2023-05-08T08:17:50.318Z,16.50
2023-05-08T08:20:17.252Z,16.50
2023-05-08T08:22:44.151Z,16.50
2023-05-08T08:25:11.156Z,16.50
2023-05-08T08:27:38.229Z,16.50
2023-05-08T08:30:15.988Z,16.60
2023-05-08T08:32:44.452Z,16.40
2023-05-08T08:35:12.198Z,16.20
2023-05-08T08:37:39.507Z,16.20
2023-05-08T08:40:06.850Z,15.90
2023-05-08T08:42:33.836Z,15.90
2023-05-08T08:45:01.275Z,15.90
2023-05-08T08:47:29.746Z,16.10
2023-05-08T08:49:57.757Z,16.30
2023-05-08T08:52:31.976Z,16.40
2023-05-08T08:55:00.414Z,16.50
2023-05-08T08:57:27.967Z,16.70
2023-05-08T08:59:55.003Z,16.80
2023-05-08T09:02:22.064Z,16.80
2023-05-08T09:04:52.016Z,17.00
2023-05-08T09:07:18.886Z,17.20
2023-05-08T09:09:46.085Z,17.30
2023-05-08T09:12:13.071Z,17.60
2023-05-08T09:14:40.093Z,17.90
2023-05-08T09:17:06.997Z,18.20
2023-05-08T09:19:34.187Z,18.10
2023-05-08T09:22:01.677Z,18.40
2023-05-08T09:24:54.153Z,18.50
2023-05-08T09:27:21.362Z,18.50
2023-05-08T09:30:14.679Z,18.50
2023-05-08T09:32:42.421Z,18.20
2023-05-08T09:35:09.957Z,18.00
2023-05-08T09:37:40.451Z,18.00
2023-05-08T09:40:13.289Z,17.90
2023-05-08T09:42:40.317Z,17.80
2023-05-08T09:45:07.591Z,17.80
2023-05-08T09:47:34.854Z,17.80
2023-05-08T09:50:02.343Z,17.70
2023-05-08T09:52:29.512Z,17.50
2023-05-08T09:54:56.881Z,17.50
2023-05-08T09:57:23.741Z,17.30
2023-05-08T09:59:50.581Z,17.10
2023-05-08T10:02:17.677Z,17.20
2023-05-08T10:04:44.565Z,17.40
2023-05-08T10:07:11.587Z,17.50
2023-05-08T10:09:47.505Z,17.70
2023-05-08T10:12:17.039Z,17.70
2023-05-08T10:14:46.533Z,17.60
2023-05-08T10:17:14.033Z,17.50
2023-05-08T10:19:41.003Z,17.50
2023-05-08T10:22:07.914Z,17.60
2023-05-08T10:24:34.809Z,17.80
2023-05-08T10:27:07.351Z,17.80
2023-05-08T10:29:40.614Z,17.80
2023-05-08T10:32:09.080Z,17.90
2023-05-08T10:34:36.017Z,17.90
2023-05-08T10:37:03.011Z,17.70
2023-05-08T10:39:29.911Z,17.80
2023-05-08T10:41:56.852Z,17.90
2023-05-08T10:44:23.726Z,17.80
2023-05-08T10:46:54.851Z,17.70
2023-05-08T10:49:28.018Z,17.70
2023-05-08T10:52:21.353Z,17.90
2023-05-08T10:54:48.230Z,17.90
2023-05-08T10:57:15.099Z,18.10
2023-05-08T10:59:45.078Z,18.30
2023-05-08T11:02:11.989Z,18.50
2023-05-08T11:04:39.052Z,18.60
2023-05-08T11:07:06.121Z,18.50
2023-05-08T11:09:41.953Z,18.60
2023-05-08T11:12:11.236Z,18.60
2023-05-08T11:14:39.454Z,18.70
2023-05-08T11:17:06.561Z,18.70
2023-05-08T11:19:33.453Z,18.70
2023-05-08T11:22:19.333Z,18.60
2023-05-08T11:24:50.101Z,18.60
2023-05-08T11:27:17.242Z,18.40
2023-05-08T11:29:45.189Z,18.40
2023-05-08T11:32:12.266Z,18.60
2023-05-08T11:34:42.567Z,18.70
2023-05-08T11:37:10.281Z,18.80
2023-05-08T11:39:37.214Z,18.80
2023-05-08T11:42:22.621Z,18.70
2023-05-08T11:44:49.853Z,18.50
2023-05-08T11:47:18.091Z,18.50
2023-05-08T11:49:45.082Z,18.50
2023-05-08T11:52:11.995Z,18.50
2023-05-08T11:54:38.886Z,18.50
2023-05-08T11:57:05.897Z,18.30
2023-05-08T11:59:37.634Z,18.10
2023-05-08T12:02:09.031Z,18.00
2023-05-08T12:04:46.898Z,17.80
2023-05-08T12:07:14.294Z,17.70
2023-05-08T12:09:41.261Z,17.60
2023-05-08T12:12:08.195Z,17.50
2023-05-08T12:14:35.261Z,17.30
2023-05-08T12:17:02.777Z,17.50
2023-05-08T12:19:29.792Z,17.40
2023-05-08T12:21:57.124Z,17.40
2023-05-08T12:24:24.538Z,17.60
2023-05-08T12:26:53.635Z,17.50
2023-05-08T12:29:20.739Z,17.60
2023-05-08T12:31:47.906Z,17.70
2023-05-08T12:34:14.789Z,17.80
2023-05-08T12:36:41.795Z,17.90
2023-05-08T12:39:15.164Z,18.00
2023-05-08T12:41:48.849Z,18.00
2023-05-08T12:44:16.949Z,17.90
2023-05-08T12:46:47.785Z,17.60
2023-05-08T12:49:14.675Z,17.60
2023-05-08T12:51:45.762Z,17.30
2023-05-08T12:54:12.644Z,17.30
2023-05-08T12:56:43.893Z,17.30
2023-05-08T12:59:10.808Z,17.30
2023-05-08T13:01:37.852Z,17.30
2023-05-08T13:04:07.430Z,17.50
2023-05-08T13:06:34.400Z,17.70
2023-05-08T13:09:01.415Z,18.00
2023-05-08T13:11:29.263Z,18.10
2023-05-08T13:13:56.185Z,18.20
2023-05-08T13:16:23.111Z,18.20
2023-05-08T13:18:50.057Z,18.10
2023-05-08T13:21:16.955Z,18.00
2023-05-08T13:23:43.892Z,17.90
2023-05-08T13:26:10.762Z,17.80
2023-05-08T13:28:37.683Z,17.60
2023-05-08T13:31:04.598Z,17.80
2023-05-08T13:33:31.542Z,18.10
2023-05-08T13:35:58.452Z,18.40
2023-05-08T13:38:25.483Z,18.60
2023-05-08T13:40:52.421Z,18.70
2023-05-08T13:43:19.319Z,18.80
2023-05-08T13:45:46.307Z,18.80
2023-05-08T13:48:13.327Z,18.80
2023-05-08T13:50:40.259Z,19.10
2023-05-08T13:53:07.154Z,19.30
2023-05-08T13:55:34.049Z,19.10
2023-05-08T13:58:00.959Z,19.00
2023-05-08T14:00:28.346Z,18.90
2023-05-08T14:02:55.554Z,18.80
2023-05-08T14:05:22.474Z,18.90
2023-05-08T14:07:49.481Z,18.90
2023-05-08T14:10:17.423Z,18.70
2023-05-08T14:12:44.579Z,18.70
2023-05-08T14:15:12.229Z,18.80
2023-05-08T14:17:39.524Z,18.70
2023-05-08T14:20:06.888Z,18.70
2023-05-08T14:22:33.875Z,18.80
2023-05-08T14:25:00.819Z,18.90
2023-05-08T14:27:27.744Z,19.00
2023-05-08T14:29:55.823Z,19.00
2023-05-08T14:32:23.014Z,18.90
2023-05-08T14:34:49.957Z,18.70
2023-05-08T14:37:17.851Z,18.60
2023-05-08T14:39:45.675Z,18.70
2023-05-08T14:44:42.485Z,18.50
2023-05-08T14:47:09.641Z,18.60
2023-05-08T14:49:38.428Z,18.60
2023-05-08T14:52:06.287Z,18.60
2023-05-08T14:54:33.607Z,18.60
2023-05-08T14:57:00.848Z,18.50
2023-05-08T14:59:27.834Z,18.60
2023-05-08T15:01:54.862Z,18.50
2023-05-08T15:04:21.920Z,18.30
2023-05-08T15:06:48.814Z,18.30
2023-05-08T15:09:17.092Z,18.40
2023-05-08T15:11:44.352Z,18.50
2023-05-08T15:14:11.280Z,18.50
2023-05-08T15:16:38.312Z,18.40
2023-05-08T15:19:05.446Z,18.60
2023-05-08T15:21:32.461Z,18.50
2023-05-08T15:23:59.353Z,18.50
2023-05-08T15:26:26.296Z,18.60
2023-05-08T15:28:53.245Z,18.40
2023-05-08T15:31:20.164Z,18.30
2023-05-08T15:33:48.382Z,18.20
2023-05-08T15:36:15.512Z,17.90
2023-05-08T15:38:42.415Z,17.80
2023-05-08T15:41:14.604Z,17.80
2023-05-08T15:43:42.509Z,17.70
2023-05-08T15:46:09.577Z,17.50
2023-05-08T15:48:36.629Z,17.40
2023-05-08T15:51:03.568Z,17.30
2023-05-08T15:53:30.513Z,17.40
2023-05-08T15:55:57.579Z,17.40
2023-05-08T15:58:24.667Z,17.40
2023-05-08T16:00:51.831Z,17.20
2023-05-08T16:03:19.345Z,17.10
2023-05-08T16:05:46.433Z,16.90
2023-05-08T16:08:13.926Z,16.70
2023-05-08T16:10:41.354Z,16.70
2023-05-08T16:13:08.417Z,16.60
2023-05-08T16:15:35.466Z,16.40
2023-05-08T16:18:03.071Z,16.40
2023-05-08T16:20:30.525Z,16.40
2023-05-08T16:22:58.066Z,16.40
2023-05-08T16:25:25.015Z,16.30
2023-05-08T16:27:51.947Z,16.20
2023-05-08T16:30:18.977Z,16.00
2023-05-08T16:32:46.535Z,16.10
2023-05-08T16:35:14.265Z,16.00
2023-05-08T16:37:41.566Z,15.90
2023-05-08T16:40:08.865Z,16.00
2023-05-08T16:42:36.376Z,16.00
2023-05-08T16:45:04.013Z,15.80
2023-05-08T16:47:30.918Z,15.80
2023-05-08T16:49:57.815Z,15.80
2023-05-08T16:52:24.802Z,15.80
2023-05-08T16:54:51.783Z,15.80
2023-05-08T16:57:18.712Z,15.70
2023-05-08T16:59:45.671Z,15.70
2023-05-08T17:02:15.798Z,15.70
2023-05-08T17:04:42.724Z,15.60
2023-05-08T17:07:09.593Z,15.60
2023-05-08T17:09:36.494Z,15.60
2023-05-08T17:12:03.545Z,15.60
2023-05-08T17:14:30.489Z,15.70
2023-05-08T17:16:57.348Z,15.80
2023-05-08T17:19:24.211Z,15.80
2023-05-08T17:21:51.108Z,15.80
2023-05-08T17:24:19.697Z,15.70
2023-05-08T17:26:46.610Z,15.70
2023-05-08T17:29:13.490Z,15.60
2023-05-08T17:31:40.456Z,15.60
2023-05-08T17:34:07.386Z,15.60
2023-05-08T17:36:34.335Z,15.60
2023-05-08T17:39:01.214Z,15.60
2023-05-08T17:41:28.144Z,15.60
2023-05-08T17:43:55.654Z,15.60
2023-05-08T17:46:22.683Z,15.50
2023-05-08T17:48:49.657Z,15.60
2023-05-08T17:51:16.554Z,15.60
2023-05-08T17:53:43.417Z,15.70
2023-05-08T17:56:11.049Z,15.60
2023-05-08T17:58:38.140Z,15.60
2023-05-08T18:01:05.138Z,15.50
2023-05-08T18:03:32.123Z,15.40
2023-05-08T18:05:59.094Z,15.40
2023-05-08T18:08:26.044Z,15.40
2023-05-08T18:10:53.002Z,15.30
2023-05-08T18:13:19.963Z,15.30
2023-05-08T18:15:46.979Z,15.40
2023-05-08T18:18:13.879Z,15.40
2023-05-08T18:20:40.741Z,15.40
2023-05-08T18:23:07.662Z,15.40
2023-05-08T18:25:35.894Z,15.30
2023-05-08T18:28:02.916Z,15.30
2023-05-08T18:30:29.892Z,15.30
2023-05-08T18:32:56.823Z,15.30
2023-05-08T18:35:23.691Z,15.30
2023-05-08T18:37:50.663Z,15.30
2023-05-08T18:40:17.632Z,15.20
2023-05-08T18:42:44.544Z,15.20
2023-05-08T18:45:11.719Z,15.10
2023-05-08T18:47:38.613Z,15.10
2023-05-08T18:50:05.686Z,15.10
2023-05-08T18:52:32.595Z,15.10
2023-05-08T18:54:59.521Z,15.10
2023-05-08T18:57:26.436Z,15.10
2023-05-08T18:59:53.368Z,15.00
2023-05-08T19:02:20.295Z,15.00
2023-05-08T19:04:47.210Z,15.00
2023-05-08T19:07:14.186Z,15.00
2023-05-08T19:09:41.106Z,14.90
2023-05-08T19:12:08.016Z,14.90
2023-05-08T19:14:34.883Z,14.90
2023-05-08T19:17:01.788Z,15.00
2023-05-08T19:19:28.713Z,14.90
2023-05-08T19:21:55.616Z,15.00
2023-05-08T19:24:24.303Z,15.00
2023-05-08T19:26:51.155Z,14.90
2023-05-08T19:29:18.122Z,15.00
2023-05-08T19:31:45.066Z,15.10
2023-05-08T19:34:12.028Z,15.00
2023-05-08T19:36:39.038Z,15.10
2023-05-08T19:39:06.054Z,15.10
2023-05-08T19:41:32.939Z,15.10
2023-05-08T19:43:59.931Z,15.10
2023-05-08T19:46:26.948Z,15.00
2023-05-08T19:48:53.895Z,15.00
2023-05-08T19:51:20.915Z,14.90
2023-05-08T19:53:47.799Z,14.90
2023-05-08T19:56:14.654Z,14.90
2023-05-08T19:58:41.601Z,14.90
2023-05-08T20:01:08.538Z,14.90
2023-05-08T20:03:35.506Z,14.90
2023-05-08T20:06:02.446Z,14.90
2023-05-08T20:08:29.462Z,14.80
2023-05-08T20:10:56.404Z,14.80
2023-05-08T20:13:23.363Z,14.90
2023-05-08T20:15:50.360Z,14.90
2023-05-08T20:18:17.334Z,14.80
2023-05-08T20:20:46.212Z,14.80
2023-05-08T20:23:13.104Z,14.80
2023-05-08T20:25:40.093Z,14.80
2023-05-08T20:28:06.961Z,14.80
2023-05-08T20:30:33.841Z,14.90
2023-05-08T20:33:05.166Z,14.80
2023-05-08T20:35:32.556Z,14.80
2023-05-08T20:37:59.434Z,14.80
2023-05-08T20:40:26.446Z,14.80
2023-05-08T20:42:53.289Z,14.80
2023-05-08T20:45:20.211Z,14.80
2023-05-08T20:47:48.475Z,14.80
2023-05-08T20:50:16.536Z,14.80
2023-05-08T20:52:43.571Z,14.80
2023-05-08T20:55:10.445Z,14.70
2023-05-08T20:57:37.327Z,14.70
2023-05-08T21:00:04.617Z,14.70
2023-05-08T21:02:31.572Z,14.70
2023-05-08T21:04:58.536Z,14.70
2023-05-08T21:07:25.468Z,14.70
2023-05-08T21:09:52.394Z,14.70
2023-05-08T21:12:19.238Z,14.60
2023-05-08T21:14:46.592Z,14.70
2023-05-08T21:17:13.497Z,14.70
2023-05-08T21:19:40.450Z,14.70
2023-05-08T21:22:09.428Z,14.70
2023-05-08T21:24:37.343Z,14.80
2023-05-08T21:27:04.282Z,14.70
2023-05-08T21:29:31.208Z,14.70
2023-05-08T21:31:58.127Z,14.70
2023-05-08T21:34:25.015Z,14.70
2023-05-08T21:36:51.877Z,14.70
2023-05-08T21:39:18.910Z,14.80
2023-05-08T21:41:46.074Z,14.70
2023-05-08T21:44:13.132Z,14.70
2023-05-08T21:46:40.097Z,14.60
2023-05-08T21:49:07.020Z,14.60
2023-05-08T21:51:33.924Z,14.60
2023-05-08T21:54:00.845Z,14.50
2023-05-08T21:56:27.698Z,14.60
2023-05-08T21:58:55.749Z,14.60
2023-05-08T22:01:22.712Z,14.60
2023-05-08T22:03:49.808Z,14.60
2023-05-08T22:06:16.825Z,14.60
2023-05-08T22:08:43.733Z,14.60
2023-05-08T22:11:10.562Z,14.60
2023-05-08T22:13:37.420Z,14.70
2023-05-08T22:16:04.543Z,14.60
2023-05-08T22:18:31.397Z,14.70
2023-05-08T22:20:58.397Z,14.70
2023-05-08T22:23:25.268Z,14.70
2023-05-08T22:25:52.200Z,14.70
2023-05-08T22:28:19.125Z,14.70
2023-05-08T22:30:46.515Z,14.70
2023-05-08T22:33:13.399Z,14.70
2023-05-08T22:35:40.258Z,14.70
2023-05-08T22:38:07.125Z,14.70
2023-05-08T22:40:34.092Z,14.70
2023-05-08T22:43:00.971Z,14.70
2023-05-08T22:45:28.014Z,14.70
2023-05-08T22:47:55.079Z,14.70
2023-05-08T22:50:22.099Z,14.70
2023-05-08T22:52:48.982Z,14.70
2023-05-08T22:55:16.570Z,14.70
2023-05-08T22:57:43.863Z,14.70
2023-05-08T23:00:11.083Z,14.70
2023-05-08T23:02:37.999Z,14.80
2023-05-08T23:05:05.112Z,14.80
2023-05-08T23:07:31.986Z,14.80
2023-05-08T23:09:58.852Z,14.80
2023-05-08T23:12:25.750Z,14.80
2023-05-08T23:14:52.662Z,14.80
2023-05-08T23:17:19.668Z,14.80
2023-05-08T23:19:46.602Z,14.80
2023-05-08T23:22:13.523Z,14.80
2023-05-08T23:24:40.505Z,14.80
2023-05-08T23:27:07.365Z,14.80
2023-05-08T23:29:34.307Z,14.70
2023-05-08T23:32:01.471Z,14.70
2023-05-08T23:34:28.411Z,14.70
2023-05-08T23:36:55.288Z,14.70
2023-05-08T23:39:22.164Z,14.70
2023-05-08T23:41:49.063Z,14.70
2023-05-08T23:44:15.965Z,14.70
2023-05-08T23:46:42.913Z,14.70
2023-05-08T23:49:09.859Z,14.70
2023-05-08T23:51:36.812Z,14.70
2023-05-08T23:54:03.809Z,14.70
2023-05-08T23:56:30.992Z,14.70
2023-05-08T23:58:57.868Z,14.70
